createdAt,value
2023-01-20T00:01:19.699Z,22.69
2023-01-20T00:03:46.083Z,22.69
2023-01-20T00:06:12.526Z,22.68
2023-01-20T00:08:38.910Z,22.63
2023-01-20T00:11:05.733Z,22.63
2023-01-20T00:13:32.090Z,22.60
2023-01-20T00:15:58.468Z,22.57
2023-01-20T00:18:24.807Z,22.57
2023-01-20T00:20:51.152Z,22.53
2023-01-20T00:23:17.551Z,22.52
2023-01-20T00:25:43.863Z,22.49
2023-01-20T00:28:10.194Z,22.47
2023-01-20T00:30:36.723Z,22.45
2023-01-20T00:33:03.082Z,22.42
2023-01-20T00:35:29.404Z,22.38
2023-01-20T00:37:55.732Z,22.36
2023-01-20T00:40:22.061Z,22.34
2023-01-20T00:42:48.394Z,22.31
2023-01-20T00:45:15.104Z,22.30
2023-01-20T00:47:41.621Z,22.29
2023-01-20T00:50:08.164Z,22.25
2023-01-20T00:52:34.480Z,22.22
2023-01-20T00:55:00.819Z,22.19
2023-01-20T00:57:27.152Z,22.18
2023-01-20T00:59:53.473Z,22.17
2023-01-20T01:02:19.865Z,22.18
2023-01-20T01:04:49.133Z,22.14
2023-01-20T01:07:15.460Z,22.14
2023-01-20T01:09:41.812Z,22.13
2023-01-20T01:12:08.124Z,22.10
2023-01-20T01:14:34.536Z,22.07
2023-01-20T01:17:00.919Z,22.06
2023-01-20T01:19:27.255Z,22.05
2023-01-20T01:21:53.570Z,22.04
2023-01-20T01:24:19.927Z,22.02
2023-01-20T01:26:46.230Z,21.97
2023-01-20T01:29:12.568Z,21.95
2023-01-20T01:31:39.088Z,21.90
2023-01-20T01:34:05.488Z,21.88
2023-01-20T01:36:31.811Z,21.86
2023-01-20T01:38:59.143Z,21.83
2023-01-20T01:41:25.923Z,21.81
2023-01-20T01:44:01.152Z,21.79
2023-01-20T01:46:27.461Z,21.77
2023-01-20T01:48:53.808Z,21.74
2023-01-20T01:51:20.082Z,21.73
2023-01-20T01:53:53.838Z,21.69
2023-01-20T01:56:20.824Z,21.68
2023-01-20T01:58:47.924Z,21.74
2023-01-20T02:01:14.345Z,21.78
2023-01-20T02:03:48.905Z,21.74
2023-01-20T02:06:15.229Z,21.78
2023-01-20T02:08:41.922Z,21.79
2023-01-20T02:11:08.243Z,21.76
2023-01-20T02:13:34.580Z,21.75
2023-01-20T02:16:10.743Z,21.73
2023-01-20T02:18:56.060Z,21.73
2023-01-20T02:21:41.208Z,21.71
2023-01-20T02:24:14.217Z,21.69
2023-01-20T02:26:59.291Z,21.66
2023-01-20T02:29:36.869Z,21.65
2023-01-20T02:32:03.131Z,21.63
2023-01-20T02:34:30.960Z,21.61
2023-01-20T02:36:58.061Z,21.59
2023-01-20T02:39:27.896Z,21.58
2023-01-20T02:41:58.790Z,21.57
2023-01-20T02:44:27.889Z,21.55
2023-01-20T02:47:17.505Z,21.52
2023-01-20T02:49:54.355Z,21.49
2023-01-20T02:52:22.340Z,21.44
2023-01-20T02:54:49.369Z,21.43
2023-01-20T02:57:16.300Z,21.40
2023-01-20T02:59:43.692Z,21.37
2023-01-20T03:02:10.718Z,21.31
2023-01-20T03:04:38.806Z,21.21
2023-01-20T03:07:05.128Z,21.33
2023-01-20T03:09:33.627Z,21.32
2023-01-20T03:12:26.409Z,21.37
2023-01-20T03:14:52.899Z,21.35
2023-01-20T03:17:19.562Z,21.35
2023-01-20T03:19:45.884Z,21.32
2023-01-20T03:22:12.267Z,21.33
2023-01-20T03:24:38.565Z,21.31
2023-01-20T03:27:04.958Z,21.30
2023-01-20T03:29:32.711Z,21.24
2023-01-20T03:31:59.471Z,21.25
2023-01-20T03:34:25.950Z,21.28
2023-01-20T03:36:52.301Z,21.32
2023-01-20T03:39:21.023Z,21.32
2023-01-20T03:41:57.666Z,21.28
2023-01-20T03:44:27.763Z,21.27
2023-01-20T03:47:06.212Z,21.26
2023-01-20T03:49:37.132Z,21.26
2023-01-20T03:52:05.013Z,21.25
2023-01-20T03:54:34.050Z,21.22
2023-01-20T03:57:04.488Z,21.17
2023-01-20T03:59:34.368Z,21.18
2023-01-20T04:02:02.304Z,21.18
2023-01-20T04:04:29.493Z,21.16
2023-01-20T04:06:55.783Z,21.14
2023-01-20T04:09:23.565Z,21.13
2023-01-20T04:11:50.000Z,21.16
2023-01-20T04:14:16.296Z,21.09
2023-01-20T04:16:42.580Z,21.09
2023-01-20T04:19:08.857Z,21.11
2023-01-20T04:21:36.007Z,21.11
2023-01-20T04:24:03.914Z,21.10
2023-01-20T04:26:30.200Z,21.10
2023-01-20T04:28:56.474Z,21.10
2023-01-20T04:31:30.605Z,21.09
2023-01-20T04:33:57.524Z,21.07
2023-01-20T04:36:23.833Z,21.05
2023-01-20T04:38:50.109Z,21.03
2023-01-20T04:41:16.394Z,21.00
2023-01-20T04:43:43.845Z,20.98
2023-01-20T04:46:10.708Z,20.95
2023-01-20T04:48:37.040Z,20.97
2023-01-20T04:51:03.942Z,20.98
2023-01-20T04:53:30.228Z,20.99
2023-01-20T04:55:56.566Z,20.98
2023-01-20T04:58:22.845Z,20.97
2023-01-20T05:00:49.117Z,20.97
2023-01-20T05:03:15.420Z,20.95
2023-01-20T05:05:41.699Z,20.94
2023-01-20T05:08:08.238Z,20.94
2023-01-20T05:10:34.526Z,20.93
2023-01-20T05:13:00.816Z,20.92
2023-01-20T05:15:27.188Z,20.91
2023-01-20T05:17:53.506Z,20.89
2023-01-20T05:20:20.686Z,20.85
2023-01-20T05:22:47.369Z,20.82
2023-01-20T05:25:13.912Z,20.82
2023-01-20T05:27:40.355Z,20.78
2023-01-20T05:30:06.835Z,20.78
2023-01-20T05:32:33.120Z,20.78
2023-01-20T05:34:59.400Z,20.77
2023-01-20T05:37:25.926Z,20.77
2023-01-20T05:39:52.251Z,20.75
2023-01-20T05:42:18.543Z,20.74
2023-01-20T05:44:45.052Z,20.74
2023-01-20T05:47:11.331Z,20.74
2023-01-20T05:49:37.617Z,20.73
2023-01-20T05:52:04.127Z,20.71
2023-01-20T05:54:30.453Z,20.68
2023-01-20T05:56:56.765Z,20.68
2023-01-20T05:59:23.276Z,20.68
2023-01-20T06:01:49.566Z,20.69
2023-01-20T06:04:15.859Z,20.70
2023-01-20T06:06:42.185Z,20.70
2023-01-20T06:09:10.850Z,20.70
2023-01-20T06:11:37.140Z,20.68
2023-01-20T06:14:03.426Z,20.67
2023-01-20T06:16:29.883Z,20.67
2023-01-20T06:18:57.531Z,20.64
2023-01-20T06:21:24.797Z,20.64
2023-01-20T06:23:51.324Z,20.61
2023-01-20T06:26:17.610Z,20.59
2023-01-20T06:28:44.167Z,20.58
2023-01-20T06:31:11.259Z,20.56
2023-01-20T06:33:37.660Z,20.58
2023-01-20T06:36:04.059Z,20.56
2023-01-20T06:38:30.799Z,20.56
2023-01-20T06:40:57.633Z,20.55
2023-01-20T06:43:23.968Z,20.55
2023-01-20T06:45:50.266Z,20.55
2023-01-20T06:48:16.569Z,20.54
2023-01-20T06:50:42.890Z,20.55
2023-01-20T06:53:09.834Z,20.55
2023-01-20T06:55:36.161Z,20.56
2023-01-20T06:58:02.487Z,20.57
2023-01-20T07:00:28.834Z,20.58
2023-01-20T07:02:55.151Z,20.59
2023-01-20T07:05:21.460Z,20.58
2023-01-20T07:07:47.796Z,20.61
2023-01-20T07:10:14.415Z,20.62
2023-01-20T07:12:40.741Z,20.63
2023-01-20T07:15:07.459Z,20.62
2023-01-20T07:17:33.774Z,20.61
2023-01-20T07:20:00.098Z,20.58
2023-01-20T07:22:26.428Z,20.59
2023-01-20T07:24:52.768Z,20.56
2023-01-20T07:27:19.082Z,20.54
2023-01-20T07:29:45.403Z,20.51
2023-01-20T07:32:11.780Z,20.51
2023-01-20T07:34:38.097Z,20.50
2023-01-20T07:37:04.518Z,20.47
2023-01-20T07:39:30.943Z,20.48
2023-01-20T07:41:57.245Z,20.43
2023-01-20T07:44:23.545Z,20.43
2023-01-20T07:46:51.571Z,20.47
2023-01-20T07:49:17.927Z,20.68
2023-01-20T07:51:44.267Z,20.73
2023-01-20T07:54:11.065Z,20.80
2023-01-20T07:56:37.383Z,20.85
2023-01-20T07:59:03.754Z,20.85
2023-01-20T08:01:30.757Z,20.95
2023-01-20T08:03:57.383Z,21.11
2023-01-20T08:06:24.137Z,21.18
2023-01-20T08:08:50.537Z,21.19
2023-01-20T08:11:17.439Z,21.23
2023-01-20T08:13:43.897Z,21.21
2023-01-20T08:16:11.118Z,21.09
2023-01-20T08:18:37.630Z,21.07
2023-01-20T08:21:06.510Z,21.13
2023-01-20T08:23:33.178Z,21.17
2023-01-20T08:26:00.005Z,21.18
2023-01-20T08:28:26.542Z,21.24
2023-01-20T08:30:52.926Z,21.29
2023-01-20T08:33:19.282Z,21.28
2023-01-20T08:35:45.594Z,21.27
2023-01-20T08:38:11.932Z,21.21
2023-01-20T08:40:40.842Z,21.15
2023-01-20T08:43:10.039Z,21.15
2023-01-20T08:45:36.462Z,21.15
2023-01-20T08:48:02.797Z,21.14
2023-01-20T08:50:29.176Z,21.12
2023-01-20T08:52:55.516Z,21.18
2023-01-20T08:55:21.830Z,21.27
2023-01-20T08:57:48.277Z,21.39
2023-01-20T09:00:14.919Z,21.52
2023-01-20T09:02:41.409Z,21.44
2023-01-20T09:05:08.655Z,21.37
2023-01-20T09:07:34.973Z,21.43
2023-01-20T09:10:01.283Z,21.46
2023-01-20T09:12:27.609Z,21.46
2023-01-20T09:14:53.932Z,21.44
2023-01-20T09:17:20.305Z,21.42
2023-01-20T09:19:46.618Z,21.41
2023-01-20T09:22:13.360Z,21.39
2023-01-20T09:24:40.707Z,21.40
2023-01-20T09:27:07.079Z,21.38
2023-01-20T09:29:33.413Z,21.37
2023-01-20T09:31:59.786Z,21.37
2023-01-20T09:34:27.334Z,21.35
2023-01-20T09:36:54.260Z,21.32
2023-01-20T09:39:39.395Z,21.28
2023-01-20T09:42:43.427Z,21.27
2023-01-20T09:45:22.622Z,21.20
2023-01-20T09:47:48.956Z,21.17
2023-01-20T09:50:39.833Z,21.11
2023-01-20T09:53:08.215Z,21.08
2023-01-20T09:56:08.562Z,21.06
2023-01-20T09:58:36.955Z,21.03
2023-01-20T10:01:03.206Z,21.02
2023-01-20T10:03:38.275Z,21.00
2023-01-20T10:06:07.055Z,20.99
2023-01-20T10:08:34.692Z,20.97
2023-01-20T10:11:08.665Z,20.97
2023-01-20T10:13:47.422Z,20.95
2023-01-20T10:16:18.844Z,20.97
2023-01-20T10:18:47.493Z,20.97
2023-01-20T10:21:15.358Z,20.97
2023-01-20T10:24:00.502Z,20.98
2023-01-20T10:26:38.983Z,20.96
2023-01-20T10:29:06.635Z,20.97
2023-01-20T10:31:33.893Z,20.95
2023-01-20T10:34:08.922Z,20.95
2023-01-20T10:36:35.268Z,20.94
2023-01-20T10:39:05.697Z,20.93
2023-01-20T10:41:34.535Z,20.93
2023-01-20T10:44:00.917Z,20.92
2023-01-20T10:46:42.641Z,20.93
2023-01-20T10:49:11.975Z,20.91
2023-01-20T10:51:38.233Z,20.91
2023-01-20T10:54:23.348Z,20.92
2023-01-20T10:56:53.517Z,20.93
2023-01-20T10:59:30.852Z,20.93
2023-01-20T11:02:10.934Z,20.93
2023-01-20T11:04:38.647Z,20.92
2023-01-20T11:07:08.386Z,20.89
2023-01-20T11:09:35.375Z,20.89
2023-01-20T11:12:02.245Z,20.88
2023-01-20T11:14:28.913Z,20.87
2023-01-20T11:16:57.814Z,20.86
2023-01-20T11:19:24.127Z,20.88
2023-01-20T11:21:50.445Z,20.95
2023-01-20T11:24:34.706Z,21.01
2023-01-20T11:27:10.984Z,21.08
2023-01-20T11:29:41.166Z,21.13
2023-01-20T11:32:23.716Z,21.18
2023-01-20T11:34:51.412Z,21.27
2023-01-20T11:37:21.873Z,21.46
2023-01-20T11:39:54.309Z,21.61
2023-01-20T11:42:24.996Z,21.72
2023-01-20T11:44:52.332Z,21.91
2023-01-20T11:47:22.673Z,21.99
2023-01-20T11:50:04.265Z,21.98
2023-01-20T11:52:30.975Z,22.00
2023-01-20T11:55:23.639Z,22.02
2023-01-20T11:57:53.575Z,22.06
2023-01-20T12:00:19.819Z,22.06
2023-01-20T12:02:56.727Z,22.06
2023-01-20T12:05:26.981Z,22.12
2023-01-20T12:07:53.313Z,22.20
2023-01-20T12:10:24.517Z,22.31
2023-01-20T12:12:51.513Z,22.33
2023-01-20T12:15:31.820Z,22.30
2023-01-20T12:18:17.492Z,22.22
2023-01-20T12:20:55.631Z,22.14
2023-01-20T12:23:32.987Z,22.10
2023-01-20T12:26:03.022Z,22.05
2023-01-20T12:28:29.309Z,21.99
2023-01-20T12:30:57.031Z,21.92
2023-01-20T12:33:23.512Z,21.92
2023-01-20T12:36:03.016Z,21.94
2023-01-20T12:38:29.371Z,21.88
2023-01-20T12:40:55.748Z,21.95
2023-01-20T12:43:26.820Z,22.03
2023-01-20T12:45:56.067Z,22.05
2023-01-20T12:48:25.503Z,22.02
2023-01-20T12:50:53.430Z,21.99
2023-01-20T12:53:38.696Z,21.93
2023-01-20T12:56:17.958Z,21.91
2023-01-20T12:59:07.623Z,21.87
2023-01-20T13:01:37.704Z,21.84
2023-01-20T13:04:03.957Z,21.83
2023-01-20T13:06:30.248Z,21.81
2023-01-20T13:09:15.196Z,21.79
2023-01-20T13:12:13.814Z,21.75
2023-01-20T13:14:44.201Z,21.74
2023-01-20T13:17:46.089Z,21.76
2023-01-20T13:20:22.109Z,21.80
2023-01-20T13:22:48.606Z,21.85
2023-01-20T13:25:15.687Z,21.80
2023-01-20T13:27:42.313Z,21.74
2023-01-20T13:30:10.580Z,21.71
2023-01-20T13:32:36.889Z,21.68
2023-01-20T13:35:25.737Z,21.63
2023-01-20T13:37:55.309Z,21.62
2023-01-20T13:40:37.001Z,21.58
2023-01-20T13:43:03.667Z,21.54
2023-01-20T13:45:29.963Z,21.50
2023-01-20T13:48:05.561Z,21.47
2023-01-20T13:50:38.630Z,21.47
2023-01-20T13:53:11.209Z,21.53
2023-01-20T13:55:40.475Z,21.63
2023-01-20T13:58:27.053Z,21.76
2023-01-20T14:00:57.213Z,21.87
2023-01-20T14:03:36.223Z,21.95
2023-01-20T14:06:07.017Z,22.07
2023-01-20T14:08:39.544Z,21.93
2023-01-20T14:11:10.497Z,21.87
2023-01-20T14:13:36.818Z,21.87
2023-01-20T14:16:03.157Z,21.90
2023-01-20T14:18:29.484Z,21.92
2023-01-20T14:21:14.005Z,21.94
2023-01-20T14:23:43.426Z,21.97
2023-01-20T14:26:39.234Z,21.94
2023-01-20T14:29:05.575Z,21.94
2023-01-20T14:31:40.345Z,21.90
2023-01-20T14:34:25.657Z,21.88
2023-01-20T14:36:51.968Z,21.80
2023-01-20T14:39:19.117Z,21.77
2023-01-20T14:41:47.618Z,21.76
2023-01-20T14:44:21.269Z,21.73
2023-01-20T14:46:48.316Z,21.71
2023-01-20T14:49:15.426Z,21.66
2023-01-20T14:51:41.738Z,21.63
2023-01-20T14:54:26.888Z,21.57
2023-01-20T14:56:53.441Z,21.54
2023-01-20T14:59:20.067Z,21.52
2023-01-20T15:01:56.329Z,21.57
2023-01-20T15:04:22.707Z,21.66
2023-01-20T15:06:53.235Z,21.75
2023-01-20T15:09:32.656Z,21.80
2023-01-20T15:12:20.044Z,21.86
2023-01-20T15:14:56.683Z,21.91
2023-01-20T15:17:23.054Z,21.90
2023-01-20T15:19:49.381Z,21.87
2023-01-20T15:22:16.819Z,21.87
2023-01-20T15:24:43.145Z,21.89
2023-01-20T15:27:28.303Z,21.95
2023-01-20T15:30:14.285Z,21.98
2023-01-20T15:32:40.705Z,21.98
2023-01-20T15:35:07.389Z,21.97
2023-01-20T15:37:33.711Z,21.94
2023-01-20T15:40:00.169Z,21.91
2023-01-20T15:42:26.512Z,21.88
2023-01-20T15:44:53.080Z,21.84
2023-01-20T15:47:20.168Z,21.78
2023-01-20T15:49:46.696Z,21.76
2023-01-20T15:52:13.012Z,21.75
2023-01-20T15:54:39.359Z,21.76
2023-01-20T15:57:09.810Z,21.76
2023-01-20T15:59:36.147Z,21.74
2023-01-20T16:02:02.540Z,21.67
2023-01-20T16:04:31.491Z,21.63
2023-01-20T16:06:57.818Z,21.60
2023-01-20T16:09:25.323Z,21.58
2023-01-20T16:11:51.639Z,21.56
2023-01-20T16:14:18.041Z,21.60
2023-01-20T16:16:44.375Z,21.71
2023-01-20T16:19:13.737Z,21.80
2023-01-20T16:21:40.083Z,21.85
2023-01-20T16:24:06.536Z,21.78
2023-01-20T16:26:33.111Z,21.78
2023-01-20T16:28:59.711Z,21.82
2023-01-20T16:31:26.297Z,21.85
2023-01-20T16:33:52.753Z,21.91
2023-01-20T16:36:19.490Z,21.80
2023-01-20T16:38:45.930Z,21.87
2023-01-20T16:41:15.352Z,22.03
2023-01-20T16:43:41.923Z,22.11
2023-01-20T16:46:28.573Z,22.04
2023-01-20T16:48:59.251Z,22.02
2023-01-20T16:51:26.694Z,21.97
2023-01-20T16:53:53.161Z,21.94
2023-01-20T16:56:20.212Z,21.90
2023-01-20T16:58:48.428Z,21.89
2023-01-20T17:01:14.876Z,21.93
2023-01-20T17:03:41.462Z,21.95
2023-01-20T17:06:08.368Z,21.93
2023-01-20T17:08:34.688Z,21.92
2023-01-20T17:11:01.006Z,21.91
2023-01-20T17:13:27.314Z,21.87
2023-01-20T17:15:53.722Z,21.84
2023-01-20T17:18:20.040Z,21.79
2023-01-20T17:20:46.371Z,21.75
2023-01-20T17:23:12.681Z,21.69
2023-01-20T17:25:39.730Z,21.63
2023-01-20T17:28:06.056Z,21.66
2023-01-20T17:30:32.401Z,21.75
2023-01-20T17:32:58.721Z,21.82
2023-01-20T17:35:25.061Z,21.84
2023-01-20T17:37:51.366Z,21.90
2023-01-20T17:40:18.066Z,21.95
2023-01-20T17:42:46.264Z,21.94
2023-01-20T17:45:12.626Z,21.93
2023-01-20T17:47:38.982Z,21.92
2023-01-20T17:50:05.402Z,21.89
2023-01-20T17:52:31.770Z,21.86
2023-01-20T17:54:58.096Z,21.82
2023-01-20T17:57:26.845Z,21.81
2023-01-20T17:59:53.595Z,21.82
2023-01-20T18:02:21.997Z,21.86
2023-01-20T18:04:48.388Z,21.90
2023-01-20T18:07:14.703Z,21.89
2023-01-20T18:09:42.931Z,21.90
2023-01-20T18:12:09.387Z,21.88
2023-01-20T18:14:35.756Z,21.87
2023-01-20T18:17:02.159Z,21.81
2023-01-20T18:19:28.521Z,21.79
2023-01-20T18:21:54.935Z,21.78
2023-01-20T18:24:21.322Z,21.77
2023-01-20T18:26:47.640Z,21.73
2023-01-20T18:29:14.620Z,21.69
2023-01-20T18:31:41.020Z,21.66
2023-01-20T18:34:07.811Z,21.59
2023-01-20T18:36:34.888Z,21.58
2023-01-20T18:39:07.994Z,21.57
2023-01-20T18:41:36.607Z,21.66
2023-01-20T18:44:03.965Z,21.73
2023-01-20T18:46:30.379Z,21.78
2023-01-20T18:48:56.998Z,21.85
2023-01-20T18:51:24.136Z,21.90
2023-01-20T18:54:05.605Z,21.90
2023-01-20T18:56:33.222Z,21.88
2023-01-20T18:58:59.639Z,21.85
2023-01-20T19:01:27.745Z,21.81
2023-01-20T19:03:54.131Z,21.77
2023-01-20T19:06:27.022Z,21.77
2023-01-20T19:08:53.363Z,21.81
2023-01-20T19:11:21.085Z,21.86
2023-01-20T19:13:48.666Z,21.89
2023-01-20T19:16:15.043Z,21.91
2023-01-20T19:18:41.506Z,21.92
2023-01-20T19:21:08.945Z,21.90
2023-01-20T19:23:35.326Z,21.89
2023-01-20T19:26:02.406Z,21.88
2023-01-20T19:28:28.769Z,21.84
2023-01-20T19:30:55.197Z,21.80
2023-01-20T19:33:21.564Z,21.81
2023-01-20T19:35:47.896Z,21.79
2023-01-20T19:38:14.223Z,21.81
2023-01-20T19:40:40.595Z,21.79
2023-01-20T19:43:06.913Z,21.80
2023-01-20T19:45:45.339Z,21.92
2023-01-20T19:48:12.200Z,21.92
2023-01-20T19:50:38.574Z,22.01
2023-01-20T19:53:04.898Z,22.09
2023-01-20T19:55:31.464Z,22.25
2023-01-20T19:57:57.820Z,22.41
2023-01-20T20:00:24.149Z,22.65
2023-01-20T20:02:52.717Z,22.86
2023-01-20T20:05:19.515Z,23.04
2023-01-20T20:07:46.161Z,23.16
2023-01-20T20:10:12.501Z,23.37
2023-01-20T20:12:38.815Z,23.50
2023-01-20T20:15:05.334Z,23.54
2023-01-20T20:17:31.912Z,23.59
2023-01-20T20:19:58.251Z,23.66
2023-01-20T20:22:24.559Z,23.75
2023-01-20T20:24:50.859Z,23.84
2023-01-20T20:27:17.171Z,23.95
2023-01-20T20:29:43.488Z,23.95
2023-01-20T20:32:10.086Z,24.01
2023-01-20T20:34:36.433Z,24.03
2023-01-20T20:37:03.430Z,24.03
2023-01-20T20:39:29.773Z,24.04
2023-01-20T20:41:56.587Z,24.12
2023-01-20T20:44:23.361Z,23.97
2023-01-20T20:46:49.741Z,24.00
2023-01-20T20:49:16.135Z,23.95
2023-01-20T20:51:42.475Z,23.94
2023-01-20T20:54:09.079Z,23.90
2023-01-20T20:56:35.382Z,23.88
2023-01-20T20:59:03.215Z,23.86
2023-01-20T21:01:33.404Z,23.82
2023-01-20T21:04:00.539Z,23.74
2023-01-20T21:06:27.091Z,23.73
2023-01-20T21:08:53.522Z,23.70
2023-01-20T21:11:24.007Z,23.73
2023-01-20T21:13:50.357Z,23.83
2023-01-20T21:16:17.542Z,23.82
2023-01-20T21:18:43.922Z,23.82
2023-01-20T21:21:11.480Z,23.84
2023-01-20T21:23:37.941Z,23.77
2023-01-20T21:26:05.030Z,23.76
2023-01-20T21:28:31.740Z,23.72
2023-01-20T21:30:58.118Z,23.79
2023-01-20T21:33:24.452Z,23.77
2023-01-20T21:35:50.772Z,23.76
2023-01-20T21:38:17.116Z,23.74
2023-01-20T21:40:59.661Z,23.71
2023-01-20T21:43:53.996Z,23.75
2023-01-20T21:46:20.550Z,23.72
2023-01-20T21:49:05.292Z,23.80
2023-01-20T21:51:50.168Z,23.77
2023-01-20T21:54:16.729Z,23.80
2023-01-20T21:56:43.121Z,23.71
2023-01-20T21:59:09.465Z,23.61
2023-01-20T22:01:35.886Z,23.58
2023-01-20T22:04:02.539Z,23.56
2023-01-20T22:06:28.883Z,23.53
2023-01-20T22:08:55.214Z,23.51
2023-01-20T22:11:21.789Z,23.47
2023-01-20T22:13:48.097Z,23.46
2023-01-20T22:16:14.459Z,23.50
2023-01-20T22:18:40.806Z,23.46
2023-01-20T22:21:07.200Z,23.35
2023-01-20T22:23:33.861Z,23.33
2023-01-20T22:26:00.359Z,23.35
2023-01-20T22:28:26.692Z,23.35
2023-01-20T22:30:53.069Z,23.32
2023-01-20T22:33:19.390Z,23.15
2023-01-20T22:35:45.710Z,23.09
2023-01-20T22:38:12.094Z,23.07
2023-01-20T22:40:38.743Z,23.05
2023-01-20T22:43:05.691Z,23.02
2023-01-20T22:45:32.062Z,23.02
2023-01-20T22:47:58.411Z,23.04
2023-01-20T22:50:24.718Z,23.07
2023-01-20T22:52:51.291Z,23.07
2023-01-20T22:55:17.598Z,23.07
2023-01-20T22:57:43.917Z,23.04
2023-01-20T23:00:12.126Z,23.04
2023-01-20T23:02:39.068Z,23.02
2023-01-20T23:05:05.514Z,23.00
2023-01-20T23:07:31.861Z,22.95
2023-01-20T23:09:58.166Z,22.90
2023-01-20T23:12:24.492Z,22.87
2023-01-20T23:14:59.731Z,22.84
2023-01-20T23:17:26.636Z,22.81
2023-01-20T23:19:53.035Z,22.79
2023-01-20T23:22:19.354Z,22.74
2023-01-20T23:24:45.898Z,22.72
2023-01-20T23:27:12.210Z,22.68
2023-01-20T23:29:39.012Z,22.63
2023-01-20T23:32:05.347Z,22.63
2023-01-20T23:34:31.662Z,22.61
2023-01-20T23:36:57.979Z,22.61
2023-01-20T23:39:24.284Z,22.61
2023-01-20T23:41:50.643Z,22.61
2023-01-20T23:44:17.210Z,22.60
2023-01-20T23:46:43.523Z,22.60
2023-01-20T23:49:10.291Z,22.58
2023-01-20T23:51:36.614Z,22.56
2023-01-20T23:54:04.394Z,22.52
2023-01-20T23:56:30.722Z,22.51
2023-01-20T23:58:57.056Z,22.49
